Aviation Digital Data Service (ADDS)

Output produced by TAFs form (0837 UTC 22 February 2017)
found at http://aviationweather.gov/adds/tafs/
 
KMAF 220520Z 2206/2306 27011KT P6SM SKC